createdAt,value
2022-07-25T00:00:40.105Z,3.85
2022-07-25T00:03:10.761Z,3.78
2022-07-25T00:05:39.916Z,3.70
2022-07-25T00:08:08.393Z,4.00
2022-07-25T00:10:36.883Z,3.42
2022-07-25T00:13:06.952Z,3.90
2022-07-25T00:15:35.501Z,3.80
2022-07-25T00:18:03.935Z,3.75
2022-07-25T00:20:32.455Z,3.90
2022-07-25T00:23:00.856Z,3.30
2022-07-25T00:25:29.523Z,3.63
2022-07-25T00:27:57.914Z,3.60
2022-07-25T00:30:27.923Z,3.70
2022-07-25T00:32:56.374Z,3.63
2022-07-25T00:35:24.813Z,3.53
2022-07-25T00:37:53.246Z,3.45
2022-07-25T00:40:21.945Z,3.70
2022-07-25T00:42:50.421Z,3.80
2022-07-25T00:45:18.929Z,3.80
2022-07-25T00:47:49.147Z,3.70
2022-07-25T00:50:17.805Z,4.03
2022-07-25T00:52:46.616Z,3.35
2022-07-25T00:55:15.401Z,3.40
2022-07-25T00:57:44.015Z,3.65
2022-07-25T01:00:15.663Z,4.03
2022-07-25T01:02:44.601Z,3.83
2022-07-25T01:05:14.671Z,3.13
2022-07-25T01:07:43.511Z,3.92
2022-07-25T01:10:11.946Z,3.97
2022-07-25T01:12:51.031Z,3.70
2022-07-25T01:15:19.766Z,3.83
2022-07-25T01:17:48.856Z,3.80
2022-07-25T01:20:19.260Z,4.13
2022-07-25T01:22:48.553Z,3.97
2022-07-25T01:25:17.713Z,3.70
2022-07-25T01:27:51.402Z,3.83
2022-07-25T01:30:24.294Z,3.53
2022-07-25T01:32:53.128Z,3.80
2022-07-25T01:35:23.169Z,3.78
2022-07-25T01:37:51.794Z,3.85
2022-07-25T01:40:20.200Z,4.10
2022-07-25T01:42:48.815Z,3.90
2022-07-25T01:45:17.261Z,3.90
2022-07-25T01:47:45.951Z,3.47
2022-07-25T01:50:14.424Z,3.72
2022-07-25T01:52:45.025Z,3.67
2022-07-25T01:55:13.805Z,3.42
2022-07-25T01:57:42.667Z,3.63
2022-07-25T02:00:18.858Z,4.80
2022-07-25T02:02:47.864Z,4.63
2022-07-25T02:05:16.739Z,4.90
2022-07-25T02:07:46.743Z,4.55
2022-07-25T02:10:15.199Z,5.20
2022-07-25T02:12:43.564Z,5.00
2022-07-25T02:15:12.895Z,4.95
2022-07-25T02:17:41.476Z,4.70
2022-07-25T02:20:10.973Z,5.05
2022-07-25T02:22:38.851Z,4.63
2022-07-25T02:25:09.298Z,4.55
2022-07-25T02:27:37.060Z,3.90
2022-07-25T02:30:06.244Z,4.10
2022-07-25T02:32:34.058Z,4.63
2022-07-25T02:35:02.047Z,4.22
2022-07-25T02:37:29.883Z,4.00
2022-07-25T02:39:57.710Z,4.38
2022-07-25T02:42:26.999Z,4.18
2022-07-25T02:44:54.879Z,4.15
2022-07-25T02:47:22.649Z,4.28
2022-07-25T02:49:50.549Z,4.10
2022-07-25T02:52:18.411Z,4.00
2022-07-25T02:54:46.359Z,4.70
2022-07-25T02:57:14.139Z,4.50
2022-07-25T02:59:43.459Z,4.90
2022-07-25T03:02:11.249Z,4.75
2022-07-25T03:04:39.191Z,4.18
2022-07-25T03:07:07.660Z,4.40
2022-07-25T03:09:36.442Z,4.85
2022-07-25T03:12:04.928Z,4.30
2022-07-25T03:14:32.851Z,5.00
2022-07-25T03:17:02.094Z,4.70
2022-07-25T03:19:29.937Z,4.43
2022-07-25T03:21:57.665Z,4.53
2022-07-25T03:24:27.885Z,4.22
2022-07-25T03:26:56.507Z,4.22
2022-07-25T03:29:24.251Z,4.35
2022-07-25T03:31:52.062Z,3.88
2022-07-25T03:34:21.537Z,3.78
2022-07-25T03:36:49.468Z,4.38
2022-07-25T03:39:17.445Z,4.20
2022-07-25T03:41:45.538Z,4.28
2022-07-25T03:44:13.436Z,4.13
2022-07-25T03:46:41.140Z,4.13
2022-07-25T03:49:09.058Z,4.18
2022-07-25T03:51:38.219Z,3.70
2022-07-25T03:54:07.063Z,4.30
2022-07-25T03:56:43.631Z,4.25
2022-07-25T03:59:13.482Z,3.85
2022-07-25T04:01:42.203Z,3.90
2022-07-25T04:04:10.611Z,4.03
2022-07-25T04:06:40.824Z,4.43
2022-07-25T04:09:10.434Z,4.70
2022-07-25T04:11:38.576Z,4.25
2022-07-25T04:14:07.211Z,4.22
2022-07-25T04:16:35.192Z,4.10
2022-07-25T04:19:06.306Z,4.70
2022-07-25T04:21:34.575Z,4.13
2022-07-25T04:24:04.296Z,4.22
2022-07-25T04:26:32.417Z,4.55
2022-07-25T04:29:04.279Z,4.43
2022-07-25T04:31:32.882Z,3.97
2022-07-25T04:34:00.560Z,4.40
2022-07-25T04:36:28.478Z,4.43
2022-07-25T04:38:56.249Z,4.00
2022-07-25T04:41:25.529Z,4.13
2022-07-25T04:43:53.507Z,4.32
2022-07-25T04:46:22.005Z,4.25
2022-07-25T04:48:50.822Z,4.05
2022-07-25T04:51:19.168Z,4.60
2022-07-25T04:53:47.249Z,4.47
2022-07-25T04:56:15.048Z,4.53
2022-07-25T04:58:44.622Z,4.30
2022-07-25T05:01:12.410Z,5.10
2022-07-25T05:03:40.182Z,4.88
2022-07-25T05:06:08.487Z,4.70
2022-07-25T05:08:36.307Z,4.53
2022-07-25T05:11:04.269Z,4.28
2022-07-25T05:13:32.053Z,5.05
2022-07-25T05:16:01.920Z,4.63
2022-07-25T05:18:29.788Z,4.70
2022-07-25T05:20:57.498Z,5.32
2022-07-25T05:23:25.246Z,4.82
2022-07-25T05:25:53.037Z,4.40
2022-07-25T05:28:20.712Z,4.97
2022-07-25T05:30:48.401Z,4.25
2022-07-25T05:33:17.701Z,4.80
2022-07-25T05:35:45.367Z,5.22
2022-07-25T05:38:13.173Z,4.80
2022-07-25T05:40:40.822Z,4.90
2022-07-25T05:43:09.258Z,4.80
2022-07-25T05:45:36.936Z,4.80
2022-07-25T05:48:04.989Z,4.93
2022-07-25T05:50:34.133Z,4.97
2022-07-25T05:53:02.075Z,5.18
2022-07-25T05:55:29.832Z,5.07
2022-07-25T05:57:58.055Z,4.70
2022-07-25T06:00:26.150Z,4.88
2022-07-25T06:02:54.660Z,4.78
2022-07-25T06:05:22.579Z,5.20
2022-07-25T06:07:51.711Z,5.22
2022-07-25T06:10:19.701Z,4.95
2022-07-25T06:12:47.570Z,5.05
2022-07-25T06:15:22.810Z,5.72
2022-07-25T06:17:54.907Z,5.10
2022-07-25T06:20:24.158Z,5.40
2022-07-25T06:22:53.986Z,5.22
2022-07-25T06:25:22.264Z,5.63
2022-07-25T06:27:50.336Z,5.68
2022-07-25T06:30:20.560Z,5.60
2022-07-25T06:32:49.741Z,5.22
2022-07-25T06:35:18.222Z,5.20
2022-07-25T06:37:46.807Z,5.53
2022-07-25T06:40:16.616Z,5.00
2022-07-25T06:42:46.068Z,4.75
2022-07-25T06:45:15.507Z,4.80
2022-07-25T06:47:45.115Z,4.90
2022-07-25T06:50:16.066Z,5.20
2022-07-25T06:52:44.292Z,5.07
2022-07-25T06:55:13.803Z,4.88
2022-07-25T06:57:43.747Z,5.63
2022-07-25T07:00:13.994Z,5.43
2022-07-25T07:02:52.520Z,5.10
2022-07-25T07:05:22.289Z,5.68
2022-07-25T07:07:50.691Z,4.50
2022-07-25T07:10:19.402Z,5.55
2022-07-25T07:12:49.492Z,5.13
2022-07-25T07:15:18.572Z,5.50
2022-07-25T07:17:46.661Z,5.18
2022-07-25T07:20:14.771Z,5.28
2022-07-25T07:22:46.873Z,5.45
2022-07-25T07:25:16.839Z,5.72
2022-07-25T07:27:45.681Z,5.47
2022-07-25T07:30:16.864Z,5.38
2022-07-25T07:32:48.391Z,5.55
2022-07-25T07:35:17.001Z,6.47
2022-07-25T07:37:45.722Z,6.53
2022-07-25T07:40:17.734Z,5.68
2022-07-25T07:42:48.567Z,6.10
2022-07-25T07:45:20.442Z,7.05
2022-07-25T07:47:49.435Z,6.20
2022-07-25T07:50:19.003Z,5.78
2022-07-25T07:52:47.343Z,5.70
2022-07-25T07:55:34.019Z,5.72
2022-07-25T07:58:02.554Z,5.80
2022-07-25T08:00:36.550Z,6.82
2022-07-25T08:03:07.032Z,6.13
2022-07-25T08:05:38.993Z,5.97
2022-07-25T08:08:09.125Z,6.53
2022-07-25T08:10:39.861Z,5.93
2022-07-25T08:13:15.541Z,6.10
2022-07-25T08:15:47.042Z,5.82
2022-07-25T08:18:17.014Z,6.20
2022-07-25T08:20:47.091Z,5.85
2022-07-25T08:23:15.689Z,6.40
2022-07-25T08:25:44.569Z,5.93
2022-07-25T08:28:13.009Z,6.07
2022-07-25T08:30:42.478Z,6.22
2022-07-25T08:33:13.939Z,6.55
2022-07-25T08:35:46.128Z,6.55
2022-07-25T08:38:14.478Z,5.90
2022-07-25T08:40:42.561Z,6.40
2022-07-25T08:43:13.392Z,6.55
2022-07-25T08:45:44.619Z,6.68
2022-07-25T08:48:14.660Z,6.40
2022-07-25T08:50:44.362Z,6.70
2022-07-25T08:53:32.672Z,7.15
2022-07-25T08:56:05.322Z,7.15
2022-07-25T08:58:38.387Z,6.97
2022-07-25T09:01:07.520Z,6.78
2022-07-25T09:03:37.379Z,6.28
2022-07-25T09:06:16.831Z,6.57
2022-07-25T09:08:53.009Z,7.22
2022-07-25T09:14:01.119Z,7.22
2022-07-25T09:16:34.298Z,6.38
2022-07-25T09:19:14.850Z,6.60
2022-07-25T09:21:44.720Z,6.78
2022-07-25T09:24:16.293Z,6.75
2022-07-25T09:26:45.981Z,7.18
2022-07-25T09:29:22.129Z,6.72
2022-07-25T09:34:31.670Z,6.97
2022-07-25T09:37:00.828Z,6.93
2022-07-25T09:39:40.797Z,7.15
2022-07-25T09:42:20.821Z,7.00
2022-07-25T09:45:03.833Z,7.07
2022-07-25T09:47:33.170Z,7.22
2022-07-25T09:50:03.079Z,6.85
2022-07-25T09:52:31.880Z,6.43
2022-07-25T09:55:03.206Z,7.20
2022-07-25T09:57:31.658Z,6.65
2022-07-25T10:00:01.105Z,6.82
2022-07-25T10:02:40.919Z,7.40
2022-07-25T10:05:15.770Z,7.75
2022-07-25T10:07:47.517Z,6.97
2022-07-25T10:10:30.946Z,7.30
2022-07-25T10:13:09.986Z,7.57
2022-07-25T10:15:47.492Z,7.22
2022-07-25T10:18:17.342Z,7.22
2022-07-25T10:20:48.495Z,7.32
2022-07-25T10:23:22.083Z,6.85
2022-07-25T10:26:05.202Z,7.55
2022-07-25T10:28:42.493Z,6.78
2022-07-25T10:31:22.619Z,8.18
2022-07-25T10:33:53.499Z,7.10
2022-07-25T10:36:25.443Z,7.05
2022-07-25T10:38:58.476Z,7.10
2022-07-25T10:41:27.493Z,7.38
2022-07-25T10:44:01.565Z,7.40
2022-07-25T10:46:31.344Z,7.35
2022-07-25T10:49:01.879Z,7.88
2022-07-25T10:51:39.480Z,7.63
2022-07-25T10:54:17.541Z,7.60
2022-07-25T10:56:54.427Z,7.15
2022-07-25T10:59:34.324Z,7.55
2022-07-25T11:02:04.658Z,7.20
2022-07-25T11:04:38.151Z,6.85
2022-07-25T11:07:14.621Z,7.40
2022-07-25T11:09:57.227Z,7.32
2022-07-25T11:12:26.973Z,7.22
2022-07-25T11:15:01.762Z,7.30
2022-07-25T11:17:50.327Z,7.55
2022-07-25T11:20:23.782Z,6.97
2022-07-25T11:22:57.192Z,6.90
2022-07-25T11:25:26.044Z,7.57
2022-07-25T11:28:01.222Z,6.65
2022-07-25T11:30:31.416Z,6.65
2022-07-25T11:33:04.045Z,6.78
2022-07-25T11:35:34.013Z,7.35
2022-07-25T11:38:06.444Z,7.10
2022-07-25T11:40:43.997Z,5.97
2022-07-25T11:43:21.556Z,6.63
2022-07-25T11:45:58.586Z,6.13
2022-07-25T11:48:35.851Z,6.20
2022-07-25T11:51:18.707Z,6.40
2022-07-25T11:53:51.121Z,6.50
2022-07-25T11:56:41.321Z,6.50
2022-07-25T11:59:10.679Z,6.60
2022-07-25T12:01:41.684Z,6.75
2022-07-25T12:04:13.103Z,6.68
2022-07-25T12:06:42.351Z,7.85
2022-07-25T12:09:19.178Z,7.95
2022-07-25T12:11:48.868Z,6.95
2022-07-25T12:14:17.710Z,6.45
2022-07-25T12:16:46.089Z,6.57
2022-07-25T12:19:21.395Z,6.25
2022-07-25T12:21:49.569Z,6.00
2022-07-25T12:24:19.131Z,6.45
2022-07-25T12:26:47.364Z,6.75
2022-07-25T12:29:15.537Z,6.95
2022-07-25T12:31:44.079Z,6.80
2022-07-25T12:34:12.400Z,6.85
2022-07-25T12:36:45.273Z,7.00
2022-07-25T12:39:14.107Z,6.90
2022-07-25T12:41:43.937Z,7.78
2022-07-25T12:44:12.438Z,7.18
2022-07-25T12:46:47.253Z,7.25
2022-07-25T12:49:17.968Z,7.00
2022-07-25T12:51:46.370Z,7.32
2022-07-25T12:54:21.740Z,6.45
2022-07-25T12:56:52.604Z,6.45
2022-07-25T12:59:21.099Z,6.05
2022-07-25T13:01:49.316Z,6.72
2022-07-25T13:04:17.700Z,6.70
2022-07-25T13:06:46.812Z,6.68
2022-07-25T13:09:15.617Z,6.40
2022-07-25T13:11:44.068Z,6.22
2022-07-25T13:14:14.214Z,6.53
2022-07-25T13:16:42.760Z,6.43
2022-07-25T13:19:11.356Z,5.93
2022-07-25T13:21:40.184Z,6.68
2022-07-25T13:24:08.915Z,5.82
2022-07-25T13:26:38.050Z,5.88
2022-07-25T13:29:12.021Z,6.32
2022-07-25T13:31:43.366Z,6.03
2022-07-25T13:34:12.310Z,6.85
2022-07-25T13:36:41.039Z,6.50
2022-07-25T13:39:09.675Z,7.28
2022-07-25T13:41:38.352Z,5.90
2022-07-25T13:44:07.218Z,6.25
2022-07-25T13:46:50.255Z,6.95
2022-07-25T13:49:19.102Z,5.72
2022-07-25T13:51:47.955Z,6.50
2022-07-25T13:54:18.975Z,6.93
2022-07-25T13:56:55.616Z,6.07
2022-07-25T14:02:20.182Z,5.57
2022-07-25T14:04:48.717Z,5.63
2022-07-25T14:07:17.410Z,6.72
2022-07-25T14:09:46.905Z,6.18
2022-07-25T14:12:17.775Z,6.55
2022-07-25T14:14:47.304Z,6.00
2022-07-25T14:17:16.427Z,6.18
2022-07-25T14:19:47.970Z,6.72
2022-07-25T14:22:16.086Z,6.78
2022-07-25T14:24:44.216Z,6.07
2022-07-25T14:27:13.106Z,6.57
2022-07-25T14:29:41.201Z,6.10
2022-07-25T14:32:09.158Z,6.22
2022-07-25T14:34:38.158Z,5.95
2022-07-25T14:37:09.975Z,6.22
2022-07-25T14:39:38.005Z,6.40
2022-07-25T14:42:05.913Z,6.07
2022-07-25T14:44:34.870Z,6.60
2022-07-25T14:47:11.857Z,6.57
2022-07-25T14:49:41.203Z,5.33
2022-07-25T14:52:12.096Z,5.97
2022-07-25T14:54:40.334Z,6.05
2022-07-25T14:57:09.000Z,6.13
2022-07-25T14:59:37.112Z,6.82
2022-07-25T15:02:05.041Z,6.15
2022-07-25T15:04:33.346Z,5.32
2022-07-25T15:07:02.263Z,6.22
2022-07-25T15:09:32.033Z,6.38
2022-07-25T15:12:00.162Z,5.60
2022-07-25T15:14:28.327Z,5.88
2022-07-25T15:16:56.429Z,5.80
2022-07-25T15:19:24.572Z,6.13
2022-07-25T15:21:54.534Z,5.72
2022-07-25T15:24:27.101Z,5.63
2022-07-25T15:26:58.656Z,6.05
2022-07-25T15:29:28.008Z,5.40
2022-07-25T15:31:55.961Z,5.60
2022-07-25T15:34:23.805Z,5.40
2022-07-25T15:36:52.379Z,5.47
2022-07-25T15:39:20.163Z,5.90
2022-07-25T15:41:48.077Z,5.47
2022-07-25T15:44:17.866Z,5.22
2022-07-25T15:46:46.471Z,5.43
2022-07-25T15:49:15.825Z,5.70
2022-07-25T15:51:43.900Z,5.78
2022-07-25T15:54:11.786Z,6.47
2022-07-25T15:56:40.542Z,5.65
2022-07-25T15:59:08.749Z,5.55
2022-07-25T16:01:38.724Z,5.28
2022-07-25T16:04:06.659Z,5.25
2022-07-25T16:06:34.747Z,4.95
2022-07-25T16:09:03.251Z,4.50
2022-07-25T16:11:31.371Z,5.13
2022-07-25T16:13:59.333Z,4.95
2022-07-25T16:16:27.524Z,5.07
2022-07-25T16:18:58.074Z,5.18
2022-07-25T16:21:25.898Z,5.07
2022-07-25T16:23:53.718Z,5.47
2022-07-25T16:26:21.561Z,4.75
2022-07-25T16:28:57.822Z,5.43
2022-07-25T16:31:27.035Z,5.13
2022-07-25T16:33:56.530Z,4.93
2022-07-25T16:36:25.602Z,5.65
2022-07-25T16:38:53.765Z,5.10
2022-07-25T16:41:21.829Z,4.93
2022-07-25T16:43:49.696Z,4.80
2022-07-25T16:46:17.745Z,4.90
2022-07-25T16:48:45.542Z,5.00
2022-07-25T16:51:15.031Z,5.10
2022-07-25T16:53:42.763Z,4.85
2022-07-25T16:56:11.066Z,4.80
2022-07-25T16:58:38.841Z,4.10
2022-07-25T17:01:07.100Z,4.45
2022-07-25T17:03:35.134Z,4.55
2022-07-25T17:06:02.951Z,4.53
2022-07-25T17:08:33.018Z,4.40
2022-07-25T17:11:16.169Z,4.18
2022-07-25T17:13:44.605Z,5.15
2022-07-25T17:16:13.243Z,4.47
2022-07-25T17:18:41.470Z,4.70
2022-07-25T17:21:10.833Z,4.22
2022-07-25T17:23:40.160Z,4.50
2022-07-25T17:26:08.131Z,4.18
2022-07-25T17:28:36.601Z,4.55
2022-07-25T17:31:04.543Z,4.20
2022-07-25T17:33:32.537Z,4.35
2022-07-25T17:36:00.722Z,4.40
2022-07-25T17:38:34.572Z,3.67
2022-07-25T17:41:04.359Z,3.92
2022-07-25T17:43:32.409Z,3.90
2022-07-25T17:46:00.455Z,4.05
2022-07-25T17:48:28.633Z,3.80
2022-07-25T17:50:56.702Z,3.72
2022-07-25T17:53:24.422Z,3.75
2022-07-25T17:55:57.383Z,3.53
2022-07-25T17:58:26.771Z,4.38
2022-07-25T18:00:58.218Z,4.03
2022-07-25T18:03:29.225Z,4.30
2022-07-25T18:05:57.244Z,3.50
2022-07-25T18:08:25.214Z,3.92
2022-07-25T18:10:53.437Z,4.38
2022-07-25T18:13:22.295Z,4.35
2022-07-25T18:15:51.905Z,3.92
2022-07-25T18:18:20.925Z,4.35
2022-07-25T18:20:49.205Z,4.18
2022-07-25T18:23:17.146Z,4.00
2022-07-25T18:25:45.397Z,3.70
2022-07-25T18:28:13.535Z,3.80
2022-07-25T18:30:41.689Z,4.28
2022-07-25T18:33:12.172Z,3.83
2022-07-25T18:35:41.607Z,3.67
2022-07-25T18:38:11.779Z,3.92
2022-07-25T18:40:39.856Z,3.78
2022-07-25T18:43:09.046Z,3.67
2022-07-25T18:45:38.427Z,3.58
2022-07-25T18:48:08.199Z,7.35
2022-07-25T18:50:37.995Z,3.83
2022-07-25T18:53:07.902Z,3.53
2022-07-25T18:55:36.022Z,3.58
2022-07-25T18:58:04.668Z,3.30
2022-07-25T19:00:32.967Z,3.33
2022-07-25T19:03:01.033Z,3.80
2022-07-25T19:05:29.475Z,3.30
2022-07-25T19:08:01.230Z,3.45
2022-07-25T19:10:29.829Z,5.75
2022-07-25T19:12:58.313Z,3.42
2022-07-25T19:15:28.735Z,3.83
2022-07-25T19:18:00.021Z,3.88
2022-07-25T19:20:30.302Z,3.28
2022-07-25T19:23:00.315Z,3.33
2022-07-25T19:25:28.749Z,3.47
2022-07-25T19:27:56.974Z,3.10
2022-07-25T19:30:25.835Z,3.05
2022-07-25T19:32:54.066Z,3.58
2022-07-25T19:35:26.297Z,3.13
2022-07-25T19:37:54.751Z,3.75
2022-07-25T19:40:24.363Z,3.55
2022-07-25T19:42:53.030Z,3.45
2022-07-25T19:45:21.257Z,3.45
2022-07-25T19:47:49.858Z,3.38
2022-07-25T19:50:18.027Z,3.80
2022-07-25T19:52:47.058Z,3.55
2022-07-25T19:55:15.669Z,3.97
2022-07-25T19:57:45.373Z,3.40
2022-07-25T20:00:14.418Z,4.00
2022-07-25T20:02:43.501Z,3.65
2022-07-25T20:05:11.917Z,3.70
2022-07-25T20:07:40.634Z,3.80
2022-07-25T20:10:10.452Z,3.67
2022-07-25T20:12:39.304Z,3.97
2022-07-25T20:15:09.826Z,4.07
2022-07-25T20:17:37.896Z,3.60
2022-07-25T20:20:08.645Z,3.80
2022-07-25T20:22:40.109Z,3.78
2022-07-25T20:25:10.473Z,2.92
2022-07-25T20:27:39.719Z,3.60
2022-07-25T20:30:11.772Z,3.78
2022-07-25T20:32:40.018Z,3.47
2022-07-25T20:35:08.701Z,3.05
2022-07-25T20:37:37.083Z,3.63
2022-07-25T20:40:06.354Z,3.38
2022-07-25T20:42:37.549Z,3.50
2022-07-25T20:45:06.988Z,3.72
2022-07-25T20:47:36.746Z,3.42
2022-07-25T20:50:05.530Z,3.47
2022-07-25T20:52:35.235Z,3.72
2022-07-25T20:55:08.265Z,3.67
2022-07-25T20:57:36.468Z,3.17
2022-07-25T21:00:07.125Z,3.33
2022-07-25T21:02:36.647Z,3.65
2022-07-25T21:05:05.225Z,3.17
2022-07-25T21:07:33.360Z,3.30
2022-07-25T21:10:01.239Z,3.10
2022-07-25T21:12:32.558Z,3.40
2022-07-25T21:15:01.574Z,3.40
2022-07-25T21:17:29.548Z,3.00
2022-07-25T21:19:59.274Z,3.50
2022-07-25T21:22:27.480Z,3.15
2022-07-25T21:24:55.722Z,3.30
2022-07-25T21:27:24.121Z,3.17
2022-07-25T21:29:52.438Z,3.22
2022-07-25T21:32:48.070Z,2.85
2022-07-25T21:35:18.547Z,2.85
2022-07-25T21:37:46.705Z,3.35
2022-07-25T21:40:14.873Z,3.65
2022-07-25T21:42:43.140Z,3.13
2022-07-25T21:45:12.311Z,3.20
2022-07-25T21:47:40.578Z,3.15
2022-07-25T21:50:28.710Z,3.58
2022-07-25T21:52:58.610Z,3.13
2022-07-25T21:55:26.943Z,3.47
2022-07-25T21:57:55.201Z,3.13
2022-07-25T22:00:23.909Z,3.80
2022-07-25T22:02:51.833Z,3.30
2022-07-25T22:05:20.324Z,3.17
2022-07-25T22:07:48.811Z,3.78
2022-07-25T22:10:20.190Z,3.22
2022-07-25T22:12:48.429Z,3.40
2022-07-25T22:15:16.491Z,3.92
2022-07-25T22:17:48.361Z,3.03
2022-07-25T22:20:19.164Z,3.30
2022-07-25T22:22:47.651Z,3.30
2022-07-25T22:25:16.100Z,3.50
2022-07-25T22:27:45.738Z,3.20
2022-07-25T22:30:19.273Z,3.20
2022-07-25T22:32:48.989Z,3.40
2022-07-25T22:35:17.683Z,3.42
2022-07-25T22:37:46.371Z,3.55
2022-07-25T22:40:15.076Z,3.45
2022-07-25T22:42:44.608Z,3.70
2022-07-25T22:45:12.640Z,3.25
2022-07-25T22:47:40.908Z,3.30
2022-07-25T22:50:10.167Z,4.03
2022-07-25T22:52:38.211Z,3.58
2022-07-25T22:55:06.837Z,4.00
2022-07-25T22:57:37.248Z,3.83
2022-07-25T23:00:11.279Z,4.10
2022-07-25T23:02:40.671Z,3.97
2022-07-25T23:05:09.488Z,3.88
2022-07-25T23:07:37.810Z,4.07
2022-07-25T23:10:07.279Z,3.78
2022-07-25T23:12:35.518Z,4.07
2022-07-25T23:15:04.131Z,3.95
2022-07-25T23:17:33.658Z,4.53
2022-07-25T23:20:01.818Z,4.07
2022-07-25T23:22:30.380Z,3.63
2022-07-25T23:24:58.909Z,3.70
2022-07-25T23:27:27.403Z,3.58
2022-07-25T23:29:55.359Z,3.47
2022-07-25T23:32:23.398Z,3.70
2022-07-25T23:34:52.934Z,3.55
2022-07-25T23:37:21.079Z,3.60
2022-07-25T23:39:49.029Z,3.88
2022-07-25T23:42:17.118Z,3.28
2022-07-25T23:44:46.103Z,3.15
2022-07-25T23:47:15.114Z,3.47
2022-07-25T23:49:43.179Z,3.60
2022-07-25T23:52:12.639Z,3.63
2022-07-25T23:54:41.237Z,3.30
2022-07-25T23:57:09.521Z,3.72
2022-07-25T23:59:37.859Z,3.45
